Kevin Aslaksen
Styremedlem

Telefon: 41543267
Mobil: 41543267

 
Last ned informasjonen som VCard
 
METAR
2018/09/23 23:20 ENCN 232320Z AUTO 33005KT 270V030 9999 SCT150/// 08/00 Q1012
TAF
2018/09/23 18:36 TAF TAF ENCN 231700Z 2318/2321 32012KT CAVOK
LN-KFK
Operativ VFR-natt
VFR dag
06:36 - 20:02
Brannvakt
Inaktiv
Banner
Banner
Banner
Banner
Banner